sensor_id;sensor_type;location;lat;lon;timestamp;P1;durP1;ratioP1;P2;durP2;ratioP2
18072;SDS011;9161;47.348;9.648;2022-12-20T00:00:41;33.00;;;16.27;;
18072;SDS011;9161;47.348;9.648;2022-12-20T00:05:25;33.40;;;16.87;;
18072;SDS011;9161;47.348;9.648;2022-12-20T00:10:08;37.07;;;17.60;;
18072;SDS011;9161;47.348;9.648;2022-12-20T00:14:54;33.27;;;16.63;;
18072;SDS011;9161;47.348;9.648;2022-12-20T00:19:38;42.97;;;19.57;;
18072;SDS011;9161;47.348;9.648;2022-12-20T00:24:22;37.67;;;17.97;;
18072;SDS011;9161;47.348;9.648;2022-12-20T00:29:07;40.10;;;19.90;;
18072;SDS011;9161;47.348;9.648;2022-12-20T00:33:52;43.70;;;20.77;;
18072;SDS011;9161;47.348;9.648;2022-12-20T00:38:36;38.37;;;18.70;;
18072;SDS011;9161;47.348;9.648;2022-12-20T00:43:20;41.43;;;18.70;;
18072;SDS011;9161;47.348;9.648;2022-12-20T00:48:04;33.00;;;16.10;;
18072;SDS011;9161;47.348;9.648;2022-12-20T00:52:49;37.67;;;17.80;;
18072;SDS011;9161;47.348;9.648;2022-12-20T00:57:33;36.57;;;16.63;;
18072;SDS011;9161;47.348;9.648;2022-12-20T01:02:16;32.27;;;15.53;;
18072;SDS011;9161;47.348;9.648;2022-12-20T01:07:01;34.80;;;15.27;;
18072;SDS011;9161;47.348;9.648;2022-12-20T01:11:46;52.07;;;19.50;;
18072;SDS011;9161;47.348;9.648;2022-12-20T01:16:31;43.50;;;17.17;;
18072;SDS011;9161;47.348;9.648;2022-12-20T01:21:17;18.60;;;8.80;;
18072;SDS011;9161;47.348;9.648;2022-12-20T01:26:03;16.97;;;8.10;;
18072;SDS011;9161;47.348;9.648;2022-12-20T01:30:51;19.03;;;9.57;;
18072;SDS011;9161;47.348;9.648;2022-12-20T01:35:34;20.50;;;10.20;;
18072;SDS011;9161;47.348;9.648;2022-12-20T01:40:18;21.00;;;10.13;;
18072;SDS011;9161;47.348;9.648;2022-12-20T01:45:02;18.37;;;8.90;;
18072;SDS011;9161;47.348;9.648;2022-12-20T01:49:51;16.17;;;8.63;;
18072;SDS011;9161;47.348;9.648;2022-12-20T01:54:38;14.63;;;7.97;;
18072;SDS011;9161;47.348;9.648;2022-12-20T01:59:25;13.70;;;6.93;;
18072;SDS011;9161;47.348;9.648;2022-12-20T02:04:10;14.70;;;7.20;;
18072;SDS011;9161;47.348;9.648;2022-12-20T02:08:56;11.27;;;6.07;;
18072;SDS011;9161;47.348;9.648;2022-12-20T02:13:44;15.83;;;6.67;;
18072;SDS011;9161;47.348;9.648;2022-12-20T02:18:33;11.20;;;6.30;;
18072;SDS011;9161;47.348;9.648;2022-12-20T02:28:59;18.17;;;8.40;;
18072;SDS011;9161;47.348;9.648;2022-12-20T02:33:58;12.40;;;5.80;;
18072;SDS011;9161;47.348;9.648;2022-12-20T02:38:42;11.67;;;4.80;;
18072;SDS011;9161;47.348;9.648;2022-12-20T02:43:26;17.30;;;8.00;;
18072;SDS011;9161;47.348;9.648;2022-12-20T02:48:29;17.30;;;8.17;;
18072;SDS011;9161;47.348;9.648;2022-12-20T02:53:17;19.03;;;8.40;;
18072;SDS011;9161;47.348;9.648;2022-12-20T02:58:01;16.67;;;8.57;;
18072;SDS011;9161;47.348;9.648;2022-12-20T03:02:48;19.50;;;9.17;;
18072;SDS011;9161;47.348;9.648;2022-12-20T03:08:02;20.67;;;9.90;;
18072;SDS011;9161;47.348;9.648;2022-12-20T03:12:50;21.07;;;9.10;;
18072;SDS011;9161;47.348;9.648;2022-12-20T03:17:35;16.53;;;8.93;;
18072;SDS011;9161;47.348;9.648;2022-12-20T03:22:19;18.23;;;8.70;;
18072;SDS011;9161;47.348;9.648;2022-12-20T03:27:05;20.40;;;10.00;;
18072;SDS011;9161;47.348;9.648;2022-12-20T03:31:52;18.63;;;9.80;;
18072;SDS011;9161;47.348;9.648;2022-12-20T03:36:35;19.57;;;9.00;;
18072;SDS011;9161;47.348;9.648;2022-12-20T03:41:19;15.17;;;7.90;;
18072;SDS011;9161;47.348;9.648;2022-12-20T03:46:06;16.90;;;8.27;;
18072;SDS011;9161;47.348;9.648;2022-12-20T03:50:51;15.33;;;6.60;;
18072;SDS011;9161;47.348;9.648;2022-12-20T03:55:34;18.77;;;7.93;;
18072;SDS011;9161;47.348;9.648;2022-12-20T04:00:18;18.07;;;7.70;;
18072;SDS011;9161;47.348;9.648;2022-12-20T04:05:02;17.77;;;8.07;;
18072;SDS011;9161;47.348;9.648;2022-12-20T04:09:48;15.70;;;7.57;;
18072;SDS011;9161;47.348;9.648;2022-12-20T04:14:31;12.00;;;6.70;;
18072;SDS011;9161;47.348;9.648;2022-12-20T04:19:16;11.13;;;6.07;;
18072;SDS011;9161;47.348;9.648;2022-12-20T04:24:01;15.33;;;5.97;;
18072;SDS011;9161;47.348;9.648;2022-12-20T04:28:47;9.67;;;5.30;;
18072;SDS011;9161;47.348;9.648;2022-12-20T04:33:30;9.17;;;5.20;;
18072;SDS011;9161;47.348;9.648;2022-12-20T04:38:13;14.53;;;6.47;;
18072;SDS011;9161;47.348;9.648;2022-12-20T04:42:57;15.00;;;5.80;;
18072;SDS011;9161;47.348;9.648;2022-12-20T04:47:42;13.33;;;6.30;;
18072;SDS011;9161;47.348;9.648;2022-12-20T04:52:26;13.87;;;6.43;;
18072;SDS011;9161;47.348;9.648;2022-12-20T04:57:28;10.77;;;5.83;;
18072;SDS011;9161;47.348;9.648;2022-12-20T05:02:12;11.90;;;6.33;;
18072;SDS011;9161;47.348;9.648;2022-12-20T05:06:57;10.93;;;5.60;;
18072;SDS011;9161;47.348;9.648;2022-12-20T05:11:40;9.20;;;4.60;;
18072;SDS011;9161;47.348;9.648;2022-12-20T05:16:24;11.67;;;4.80;;
18072;SDS011;9161;47.348;9.648;2022-12-20T05:21:07;10.13;;;4.37;;
18072;SDS011;9161;47.348;9.648;2022-12-20T05:26:10;8.20;;;4.10;;
18072;SDS011;9161;47.348;9.648;2022-12-20T05:30:59;8.03;;;3.57;;
18072;SDS011;9161;47.348;9.648;2022-12-20T05:35:43;9.33;;;3.93;;
18072;SDS011;9161;47.348;9.648;2022-12-20T05:40:26;7.03;;;3.40;;
18072;SDS011;9161;47.348;9.648;2022-12-20T05:45:12;9.47;;;3.87;;
18072;SDS011;9161;47.348;9.648;2022-12-20T05:49:56;11.47;;;5.57;;
18072;SDS011;9161;47.348;9.648;2022-12-20T05:54:39;6.83;;;4.10;;
18072;SDS011;9161;47.348;9.648;2022-12-20T05:59:23;8.37;;;3.70;;
18072;SDS011;9161;47.348;9.648;2022-12-20T06:04:08;6.93;;;3.47;;
18072;SDS011;9161;47.348;9.648;2022-12-20T06:08:51;8.37;;;3.67;;
18072;SDS011;9161;47.348;9.648;2022-12-20T06:13:36;8.63;;;3.03;;
18072;SDS011;9161;47.348;9.648;2022-12-20T06:18:20;9.37;;;4.30;;
18072;SDS011;9161;47.348;9.648;2022-12-20T06:23:05;10.53;;;4.23;;
18072;SDS011;9161;47.348;9.648;2022-12-20T06:27:50;9.37;;;4.20;;
18072;SDS011;9161;47.348;9.648;2022-12-20T06:32:33;7.40;;;3.93;;
18072;SDS011;9161;47.348;9.648;2022-12-20T06:37:17;11.13;;;5.23;;
18072;SDS011;9161;47.348;9.648;2022-12-20T06:42:02;9.07;;;4.60;;
18072;SDS011;9161;47.348;9.648;2022-12-20T06:46:46;9.10;;;4.50;;
18072;SDS011;9161;47.348;9.648;2022-12-20T06:51:30;7.43;;;4.07;;
18072;SDS011;9161;47.348;9.648;2022-12-20T06:56:13;8.20;;;3.80;;
18072;SDS011;9161;47.348;9.648;2022-12-20T07:00:58;8.93;;;4.63;;
18072;SDS011;9161;47.348;9.648;2022-12-20T07:05:42;9.53;;;4.23;;
18072;SDS011;9161;47.348;9.648;2022-12-20T07:10:25;11.73;;;5.27;;
18072;SDS011;9161;47.348;9.648;2022-12-20T07:15:09;16.97;;;8.07;;
18072;SDS011;9161;47.348;9.648;2022-12-20T07:19:54;15.10;;;7.33;;
18072;SDS011;9161;47.348;9.648;2022-12-20T07:24:38;10.63;;;4.63;;
18072;SDS011;9161;47.348;9.648;2022-12-20T07:29:21;6.80;;;3.73;;
18072;SDS011;9161;47.348;9.648;2022-12-20T07:34:06;6.57;;;3.53;;
18072;SDS011;9161;47.348;9.648;2022-12-20T07:38:51;7.90;;;4.33;;
18072;SDS011;9161;47.348;9.648;2022-12-20T07:43:35;11.93;;;5.30;;
18072;SDS011;9161;47.348;9.648;2022-12-20T07:48:18;10.10;;;4.57;;
18072;SDS011;9161;47.348;9.648;2022-12-20T07:53:02;11.40;;;4.40;;
18072;SDS011;9161;47.348;9.648;2022-12-20T07:57:51;9.37;;;3.97;;
18072;SDS011;9161;47.348;9.648;2022-12-20T08:02:38;9.40;;;4.03;;
18072;SDS011;9161;47.348;9.648;2022-12-20T08:07:25;8.63;;;4.60;;
18072;SDS011;9161;47.348;9.648;2022-12-20T08:12:10;9.77;;;4.40;;
18072;SDS011;9161;47.348;9.648;2022-12-20T08:16:58;10.00;;;4.77;;
18072;SDS011;9161;47.348;9.648;2022-12-20T08:21:42;7.60;;;4.27;;
18072;SDS011;9161;47.348;9.648;2022-12-20T08:26:26;9.13;;;4.60;;
18072;SDS011;9161;47.348;9.648;2022-12-20T08:31:10;9.87;;;5.40;;
18072;SDS011;9161;47.348;9.648;2022-12-20T08:35:59;11.60;;;5.03;;
18072;SDS011;9161;47.348;9.648;2022-12-20T08:40:44;12.30;;;5.00;;
18072;SDS011;9161;47.348;9.648;2022-12-20T08:45:27;9.93;;;4.77;;
18072;SDS011;9161;47.348;9.648;2022-12-20T08:50:11;10.30;;;4.87;;
18072;SDS011;9161;47.348;9.648;2022-12-20T08:54:56;8.37;;;4.37;;
18072;SDS011;9161;47.348;9.648;2022-12-20T08:59:42;12.37;;;5.23;;
18072;SDS011;9161;47.348;9.648;2022-12-20T09:04:26;10.80;;;5.20;;
18072;SDS011;9161;47.348;9.648;2022-12-20T09:09:09;7.43;;;3.60;;
18072;SDS011;9161;47.348;9.648;2022-12-20T09:13:55;8.73;;;4.07;;
18072;SDS011;9161;47.348;9.648;2022-12-20T09:18:40;6.70;;;3.57;;
18072;SDS011;9161;47.348;9.648;2022-12-20T09:23:23;10.00;;;4.93;;
18072;SDS011;9161;47.348;9.648;2022-12-20T09:28:07;11.27;;;4.70;;
18072;SDS011;9161;47.348;9.648;2022-12-20T09:32:54;8.77;;;4.57;;
18072;SDS011;9161;47.348;9.648;2022-12-20T09:37:55;12.67;;;6.23;;
18072;SDS011;9161;47.348;9.648;2022-12-20T09:42:40;12.40;;;7.50;;
18072;SDS011;9161;47.348;9.648;2022-12-20T09:47:23;18.03;;;7.63;;
18072;SDS011;9161;47.348;9.648;2022-12-20T09:52:18;18.37;;;6.33;;
18072;SDS011;9161;47.348;9.648;2022-12-20T09:57:14;10.50;;;5.73;;
18072;SDS011;9161;47.348;9.648;2022-12-20T10:02:09;9.20;;;5.40;;
18072;SDS011;9161;47.348;9.648;2022-12-20T10:07:19;10.47;;;6.10;;
18072;SDS011;9161;47.348;9.648;2022-12-20T10:12:13;14.60;;;6.80;;
18072;SDS011;9161;47.348;9.648;2022-12-20T10:17:04;11.83;;;6.50;;
18072;SDS011;9161;47.348;9.648;2022-12-20T10:21:54;12.83;;;6.67;;
18072;SDS011;9161;47.348;9.648;2022-12-20T10:26:46;15.33;;;8.70;;
18072;SDS011;9161;47.348;9.648;2022-12-20T10:31:33;16.43;;;8.70;;
18072;SDS011;9161;47.348;9.648;2022-12-20T10:36:18;21.77;;;10.17;;
18072;SDS011;9161;47.348;9.648;2022-12-20T10:41:10;24.30;;;14.10;;
18072;SDS011;9161;47.348;9.648;2022-12-20T10:46:05;24.17;;;12.60;;
18072;SDS011;9161;47.348;9.648;2022-12-20T10:50:53;27.17;;;14.00;;
18072;SDS011;9161;47.348;9.648;2022-12-20T10:55:39;29.47;;;13.57;;
18072;SDS011;9161;47.348;9.648;2022-12-20T11:00:26;24.47;;;12.77;;
18072;SDS011;9161;47.348;9.648;2022-12-20T11:05:20;24.33;;;13.20;;
18072;SDS011;9161;47.348;9.648;2022-12-20T11:10:16;25.30;;;13.90;;
18072;SDS011;9161;47.348;9.648;2022-12-20T11:15:09;23.27;;;12.70;;
18072;SDS011;9161;47.348;9.648;2022-12-20T11:20:26;24.40;;;12.37;;
18072;SDS011;9161;47.348;9.648;2022-12-20T11:25:19;23.07;;;11.40;;
18072;SDS011;9161;47.348;9.648;2022-12-20T11:30:18;22.70;;;11.37;;
18072;SDS011;9161;47.348;9.648;2022-12-20T11:35:06;18.60;;;10.03;;
18072;SDS011;9161;47.348;9.648;2022-12-20T11:40:04;18.83;;;9.93;;
18072;SDS011;9161;47.348;9.648;2022-12-20T11:45:00;18.73;;;9.00;;
18072;SDS011;9161;47.348;9.648;2022-12-20T11:49:53;17.17;;;9.53;;
18072;SDS011;9161;47.348;9.648;2022-12-20T11:54:57;17.10;;;8.67;;
18072;SDS011;9161;47.348;9.648;2022-12-20T11:59:49;16.30;;;9.40;;
18072;SDS011;9161;47.348;9.648;2022-12-20T12:04:37;18.60;;;8.60;;
18072;SDS011;9161;47.348;9.648;2022-12-20T12:09:26;21.67;;;9.93;;
18072;SDS011;9161;47.348;9.648;2022-12-20T12:14:15;18.50;;;10.23;;
18072;SDS011;9161;47.348;9.648;2022-12-20T12:19:09;19.50;;;10.07;;
18072;SDS011;9161;47.348;9.648;2022-12-20T12:23:57;20.70;;;10.37;;
18072;SDS011;9161;47.348;9.648;2022-12-20T12:28:52;19.30;;;11.17;;
18072;SDS011;9161;47.348;9.648;2022-12-20T12:33:39;20.50;;;11.13;;
18072;SDS011;9161;47.348;9.648;2022-12-20T12:38:35;21.47;;;11.20;;
18072;SDS011;9161;47.348;9.648;2022-12-20T12:43:46;23.90;;;11.43;;
18072;SDS011;9161;47.348;9.648;2022-12-20T12:48:33;26.40;;;12.20;;
18072;SDS011;9161;47.348;9.648;2022-12-20T12:53:22;25.77;;;12.87;;
18072;SDS011;9161;47.348;9.648;2022-12-20T13:03:33;27.23;;;12.63;;
18072;SDS011;9161;47.348;9.648;2022-12-20T13:08:19;35.50;;;14.97;;
18072;SDS011;9161;47.348;9.648;2022-12-20T13:13:29;44.97;;;19.17;;
18072;SDS011;9161;47.348;9.648;2022-12-20T13:18:19;38.47;;;18.20;;
18072;SDS011;9161;47.348;9.648;2022-12-20T13:23:14;36.10;;;17.20;;
18072;SDS011;9161;47.348;9.648;2022-12-20T13:33:41;37.77;;;19.07;;
18072;SDS011;9161;47.348;9.648;2022-12-20T13:43:41;33.30;;;15.83;;
18072;SDS011;9161;47.348;9.648;2022-12-20T13:48:29;29.70;;;14.20;;
18072;SDS011;9161;47.348;9.648;2022-12-20T13:53:22;27.50;;;13.87;;
18072;SDS011;9161;47.348;9.648;2022-12-20T13:58:15;24.97;;;12.97;;
18072;SDS011;9161;47.348;9.648;2022-12-20T14:03:00;29.07;;;14.00;;
18072;SDS011;9161;47.348;9.648;2022-12-20T14:07:46;25.93;;;12.63;;
18072;SDS011;9161;47.348;9.648;2022-12-20T14:12:35;25.03;;;13.60;;
18072;SDS011;9161;47.348;9.648;2022-12-20T14:17:24;27.50;;;14.30;;
18072;SDS011;9161;47.348;9.648;2022-12-20T14:22:09;31.47;;;15.23;;
18072;SDS011;9161;47.348;9.648;2022-12-20T14:26:54;31.60;;;15.07;;
18072;SDS011;9161;47.348;9.648;2022-12-20T14:31:40;32.17;;;16.00;;
18072;SDS011;9161;47.348;9.648;2022-12-20T14:36:26;36.40;;;16.40;;
18072;SDS011;9161;47.348;9.648;2022-12-20T14:41:28;37.50;;;16.90;;
18072;SDS011;9161;47.348;9.648;2022-12-20T14:46:17;49.00;;;18.07;;
18072;SDS011;9161;47.348;9.648;2022-12-20T14:51:04;31.50;;;14.27;;
18072;SDS011;9161;47.348;9.648;2022-12-20T14:55:48;40.23;;;20.03;;
18072;SDS011;9161;47.348;9.648;2022-12-20T15:00:33;36.77;;;17.87;;
18072;SDS011;9161;47.348;9.648;2022-12-20T15:05:41;42.77;;;18.83;;
18072;SDS011;9161;47.348;9.648;2022-12-20T15:10:33;39.23;;;19.20;;
18072;SDS011;9161;47.348;9.648;2022-12-20T15:15:17;43.77;;;20.37;;
18072;SDS011;9161;47.348;9.648;2022-12-20T15:20:11;47.17;;;21.30;;
18072;SDS011;9161;47.348;9.648;2022-12-20T15:24:55;52.23;;;21.60;;
18072;SDS011;9161;47.348;9.648;2022-12-20T15:29:40;51.67;;;24.60;;
18072;SDS011;9161;47.348;9.648;2022-12-20T15:34:26;57.30;;;26.10;;
18072;SDS011;9161;47.348;9.648;2022-12-20T15:39:12;57.40;;;25.37;;
18072;SDS011;9161;47.348;9.648;2022-12-20T15:43:57;50.50;;;23.57;;
18072;SDS011;9161;47.348;9.648;2022-12-20T15:48:43;43.73;;;20.63;;
18072;SDS011;9161;47.348;9.648;2022-12-20T15:53:29;43.90;;;20.90;;
18072;SDS011;9161;47.348;9.648;2022-12-20T15:58:14;47.27;;;23.13;;
18072;SDS011;9161;47.348;9.648;2022-12-20T16:02:58;45.93;;;21.40;;
18072;SDS011;9161;47.348;9.648;2022-12-20T16:07:44;35.60;;;18.60;;
18072;SDS011;9161;47.348;9.648;2022-12-20T16:12:28;43.40;;;20.93;;
18072;SDS011;9161;47.348;9.648;2022-12-20T16:17:14;44.33;;;20.50;;
18072;SDS011;9161;47.348;9.648;2022-12-20T16:21:59;40.23;;;19.47;;
18072;SDS011;9161;47.348;9.648;2022-12-20T16:26:44;41.07;;;18.93;;
18072;SDS011;9161;47.348;9.648;2022-12-20T16:31:29;32.10;;;16.57;;
18072;SDS011;9161;47.348;9.648;2022-12-20T16:36:14;30.80;;;15.90;;
18072;SDS011;9161;47.348;9.648;2022-12-20T16:40:58;24.70;;;13.83;;
18072;SDS011;9161;47.348;9.648;2022-12-20T16:45:55;29.07;;;14.47;;
18072;SDS011;9161;47.348;9.648;2022-12-20T16:50:39;31.07;;;14.57;;
18072;SDS011;9161;47.348;9.648;2022-12-20T16:55:24;30.73;;;15.53;;
18072;SDS011;9161;47.348;9.648;2022-12-20T17:00:17;33.47;;;15.13;;
18072;SDS011;9161;47.348;9.648;2022-12-20T17:05:04;23.00;;;12.40;;
18072;SDS011;9161;47.348;9.648;2022-12-20T17:09:49;25.30;;;13.13;;
18072;SDS011;9161;47.348;9.648;2022-12-20T17:14:51;26.87;;;13.30;;
18072;SDS011;9161;47.348;9.648;2022-12-20T17:19:36;33.07;;;15.63;;
18072;SDS011;9161;47.348;9.648;2022-12-20T17:24:23;27.37;;;14.40;;
18072;SDS011;9161;47.348;9.648;2022-12-20T17:29:08;32.70;;;15.17;;
18072;SDS011;9161;47.348;9.648;2022-12-20T17:33:53;28.00;;;15.33;;
18072;SDS011;9161;47.348;9.648;2022-12-20T17:38:41;25.30;;;13.57;;
18072;SDS011;9161;47.348;9.648;2022-12-20T17:43:35;22.90;;;11.57;;
18072;SDS011;9161;47.348;9.648;2022-12-20T17:48:21;22.20;;;9.70;;
18072;SDS011;9161;47.348;9.648;2022-12-20T17:53:13;20.20;;;9.20;;
18072;SDS011;9161;47.348;9.648;2022-12-20T17:57:58;21.00;;;9.60;;
18072;SDS011;9161;47.348;9.648;2022-12-20T18:02:44;16.30;;;9.20;;
18072;SDS011;9161;47.348;9.648;2022-12-20T18:07:28;26.13;;;12.37;;
18072;SDS011;9161;47.348;9.648;2022-12-20T18:12:12;30.90;;;14.30;;
18072;SDS011;9161;47.348;9.648;2022-12-20T18:16:57;28.90;;;15.87;;
18072;SDS011;9161;47.348;9.648;2022-12-20T18:21:43;28.70;;;13.33;;
18072;SDS011;9161;47.348;9.648;2022-12-20T18:26:29;24.00;;;13.27;;
18072;SDS011;9161;47.348;9.648;2022-12-20T18:31:15;26.30;;;13.73;;
18072;SDS011;9161;47.348;9.648;2022-12-20T18:36:01;29.67;;;15.23;;
18072;SDS011;9161;47.348;9.648;2022-12-20T18:40:48;30.20;;;15.90;;
18072;SDS011;9161;47.348;9.648;2022-12-20T18:45:33;26.00;;;14.67;;
18072;SDS011;9161;47.348;9.648;2022-12-20T18:50:17;25.90;;;13.37;;
18072;SDS011;9161;47.348;9.648;2022-12-20T18:55:02;21.97;;;11.00;;
18072;SDS011;9161;47.348;9.648;2022-12-20T18:59:49;17.80;;;8.93;;
18072;SDS011;9161;47.348;9.648;2022-12-20T19:04:33;16.20;;;9.30;;
18072;SDS011;9161;47.348;9.648;2022-12-20T19:09:17;20.00;;;8.73;;
18072;SDS011;9161;47.348;9.648;2022-12-20T19:14:01;16.63;;;9.00;;
18072;SDS011;9161;47.348;9.648;2022-12-20T19:18:47;14.43;;;8.33;;
18072;SDS011;9161;47.348;9.648;2022-12-20T19:23:31;20.83;;;9.90;;
18072;SDS011;9161;47.348;9.648;2022-12-20T19:28:20;20.93;;;8.93;;
18072;SDS011;9161;47.348;9.648;2022-12-20T19:33:04;22.03;;;10.30;;
18072;SDS011;9161;47.348;9.648;2022-12-20T19:37:51;19.70;;;9.03;;
18072;SDS011;9161;47.348;9.648;2022-12-20T19:42:37;16.50;;;9.10;;
18072;SDS011;9161;47.348;9.648;2022-12-20T19:47:24;16.60;;;7.80;;
18072;SDS011;9161;47.348;9.648;2022-12-20T19:52:09;15.80;;;7.43;;
18072;SDS011;9161;47.348;9.648;2022-12-20T19:56:54;14.83;;;6.93;;
18072;SDS011;9161;47.348;9.648;2022-12-20T20:01:39;16.73;;;9.10;;
18072;SDS011;9161;47.348;9.648;2022-12-20T20:06:23;20.13;;;9.97;;
18072;SDS011;9161;47.348;9.648;2022-12-20T20:11:08;18.13;;;9.23;;
18072;SDS011;9161;47.348;9.648;2022-12-20T20:15:54;18.67;;;9.07;;
18072;SDS011;9161;47.348;9.648;2022-12-20T20:20:40;13.77;;;7.80;;
18072;SDS011;9161;47.348;9.648;2022-12-20T20:25:24;13.30;;;6.50;;
18072;SDS011;9161;47.348;9.648;2022-12-20T20:30:08;15.37;;;7.77;;
18072;SDS011;9161;47.348;9.648;2022-12-20T20:34:56;13.73;;;7.47;;
18072;SDS011;9161;47.348;9.648;2022-12-20T20:39:40;11.17;;;6.37;;
18072;SDS011;9161;47.348;9.648;2022-12-20T20:44:24;12.93;;;6.70;;
18072;SDS011;9161;47.348;9.648;2022-12-20T20:49:08;11.10;;;6.57;;
18072;SDS011;9161;47.348;9.648;2022-12-20T20:53:54;11.33;;;6.83;;
18072;SDS011;9161;47.348;9.648;2022-12-20T20:58:39;14.40;;;7.17;;
18072;SDS011;9161;47.348;9.648;2022-12-20T21:03:23;15.63;;;7.60;;
18072;SDS011;9161;47.348;9.648;2022-12-20T21:08:08;12.57;;;6.67;;
18072;SDS011;9161;47.348;9.648;2022-12-20T21:12:53;13.43;;;6.73;;
18072;SDS011;9161;47.348;9.648;2022-12-20T21:17:37;12.47;;;6.60;;
18072;SDS011;9161;47.348;9.648;2022-12-20T21:22:21;10.93;;;6.00;;
18072;SDS011;9161;47.348;9.648;2022-12-20T21:27:08;11.43;;;5.33;;
18072;SDS011;9161;47.348;9.648;2022-12-20T21:31:53;9.67;;;5.37;;
18072;SDS011;9161;47.348;9.648;2022-12-20T21:36:37;10.57;;;5.80;;
18072;SDS011;9161;47.348;9.648;2022-12-20T21:41:21;10.40;;;5.60;;
18072;SDS011;9161;47.348;9.648;2022-12-20T21:46:07;14.33;;;6.53;;
18072;SDS011;9161;47.348;9.648;2022-12-20T21:51:00;18.30;;;8.13;;
18072;SDS011;9161;47.348;9.648;2022-12-20T21:55:45;15.20;;;7.40;;
18072;SDS011;9161;47.348;9.648;2022-12-20T22:00:28;16.50;;;8.30;;
18072;SDS011;9161;47.348;9.648;2022-12-20T22:05:12;15.17;;;7.50;;
18072;SDS011;9161;47.348;9.648;2022-12-20T22:09:58;13.83;;;7.60;;
18072;SDS011;9161;47.348;9.648;2022-12-20T22:14:41;14.40;;;8.07;;
18072;SDS011;9161;47.348;9.648;2022-12-20T22:19:25;19.27;;;8.83;;
18072;SDS011;9161;47.348;9.648;2022-12-20T22:24:08;19.43;;;9.67;;
18072;SDS011;9161;47.348;9.648;2022-12-20T22:28:54;24.60;;;10.07;;
18072;SDS011;9161;47.348;9.648;2022-12-20T22:33:39;22.43;;;9.17;;
18072;SDS011;9161;47.348;9.648;2022-12-20T22:38:24;17.80;;;9.30;;
18072;SDS011;9161;47.348;9.648;2022-12-20T22:43:07;18.23;;;8.80;;
18072;SDS011;9161;47.348;9.648;2022-12-20T22:47:53;18.27;;;9.47;;
18072;SDS011;9161;47.348;9.648;2022-12-20T22:52:54;18.53;;;9.10;;
18072;SDS011;9161;47.348;9.648;2022-12-20T22:57:37;19.13;;;9.73;;
18072;SDS011;9161;47.348;9.648;2022-12-20T23:02:21;23.03;;;9.60;;
18072;SDS011;9161;47.348;9.648;2022-12-20T23:07:06;20.67;;;10.10;;
18072;SDS011;9161;47.348;9.648;2022-12-20T23:11:50;18.37;;;9.40;;
18072;SDS011;9161;47.348;9.648;2022-12-20T23:16:51;15.63;;;8.30;;
18072;SDS011;9161;47.348;9.648;2022-12-20T23:21:35;16.07;;;8.53;;
18072;SDS011;9161;47.348;9.648;2022-12-20T23:26:37;17.67;;;9.73;;
18072;SDS011;9161;47.348;9.648;2022-12-20T23:31:21;19.47;;;10.60;;
18072;SDS011;9161;47.348;9.648;2022-12-20T23:36:05;30.87;;;12.37;;
18072;SDS011;9161;47.348;9.648;2022-12-20T23:40:49;26.23;;;13.63;;
18072;SDS011;9161;47.348;9.648;2022-12-20T23:45:34;24.73;;;11.20;;
18072;SDS011;9161;47.348;9.648;2022-12-20T23:50:18;24.97;;;11.23;;
18072;SDS011;9161;47.348;9.648;2022-12-20T23:55:01;22.90;;;11.70;;
18072;SDS011;9161;47.348;9.648;2022-12-20T23:59:46;23.60;;;10.90;;
